sensor_id;sensor_type;location;lat;lon;timestamp;pressure;altitude;pressure_sealevel;temperature;humidity
69982;BME280;57319;56.274;43.980;2023-03-20T00:02:07;100301.78;;;0.23;58.26
69982;BME280;57319;56.274;43.980;2023-03-20T00:04:33;100299.34;;;0.25;58.61
69982;BME280;57319;56.274;43.980;2023-03-20T00:06:58;100298.56;;;0.27;58.91
69982;BME280;57319;56.274;43.980;2023-03-20T00:09:24;100301.91;;;0.26;58.91
69982;BME280;57319;56.274;43.980;2023-03-20T00:11:52;100290.06;;;0.25;58.45
69982;BME280;57319;56.274;43.980;2023-03-20T00:14:20;100304.41;;;0.25;58.38
69982;BME280;57319;56.274;43.980;2023-03-20T00:16:49;100302.66;;;0.24;58.43
69982;BME280;57319;56.274;43.980;2023-03-20T00:19:24;100306.78;;;0.22;58.35
69982;BME280;57319;56.274;43.980;2023-03-20T00:21:52;100298.28;;;0.20;58.28
69982;BME280;57319;56.274;43.980;2023-03-20T00:24:18;100300.13;;;0.24;58.44
69982;BME280;57319;56.274;43.980;2023-03-20T00:26:45;100294.13;;;0.22;59.02
69982;BME280;57319;56.274;43.980;2023-03-20T00:31:42;100288.16;;;0.20;58.20
69982;BME280;57319;56.274;43.980;2023-03-20T00:34:12;100289.81;;;0.19;58.41
69982;BME280;57319;56.274;43.980;2023-03-20T00:36:38;100286.47;;;0.20;58.62
69982;BME280;57319;56.274;43.980;2023-03-20T00:39:04;100279.81;;;0.22;58.84
69982;BME280;57319;56.274;43.980;2023-03-20T00:41:36;100282.34;;;0.22;59.26
69982;BME280;57319;56.274;43.980;2023-03-20T00:44:21;100279.88;;;0.24;59.32
69982;BME280;57319;56.274;43.980;2023-03-20T00:46:53;100277.28;;;0.22;59.38
69982;BME280;57319;56.274;43.980;2023-03-20T00:49:29;100278.09;;;0.21;59.03
69982;BME280;57319;56.274;43.980;2023-03-20T00:51:55;100285.69;;;0.21;58.98
69982;BME280;57319;56.274;43.980;2023-03-20T00:54:22;100281.41;;;0.20;59.02
69982;BME280;57319;56.274;43.980;2023-03-20T00:56:57;100281.47;;;0.22;58.99
69982;BME280;57319;56.274;43.980;2023-03-20T00:59:33;100273.88;;;0.22;59.37
69982;BME280;57319;56.274;43.980;2023-03-20T01:02:00;100276.41;;;0.22;59.42
69982;BME280;57319;56.274;43.980;2023-03-20T01:04:34;100275.59;;;0.23;59.46
69982;BME280;57319;56.274;43.980;2023-03-20T01:07:01;100268.06;;;0.24;59.42
69982;BME280;57319;56.274;43.980;2023-03-20T01:09:26;100259.66;;;0.25;59.38
69982;BME280;57319;56.274;43.980;2023-03-20T01:11:52;100271.47;;;0.25;59.33
69982;BME280;57319;56.274;43.980;2023-03-20T01:14:18;100260.53;;;0.26;59.43
69982;BME280;57319;56.274;43.980;2023-03-20T01:16:43;100259.72;;;0.27;60.52
69982;BME280;57319;56.274;43.980;2023-03-20T01:19:11;100258.81;;;0.25;60.11
69982;BME280;57319;56.274;43.980;2023-03-20T01:21:38;100261.34;;;0.25;60.33
69982;BME280;57319;56.274;43.980;2023-03-20T01:24:04;100256.19;;;0.23;60.17
69982;BME280;57319;56.274;43.980;2023-03-20T01:26:35;100262.16;;;0.24;59.52
69982;BME280;57319;56.274;43.980;2023-03-20T01:29:02;100254.56;;;0.24;59.65
69982;BME280;57319;56.274;43.980;2023-03-20T01:31:28;100250.53;;;0.29;60.05
69982;BME280;57319;56.274;43.980;2023-03-20T01:33:53;100257.19;;;0.27;59.61
69982;BME280;57319;56.274;43.980;2023-03-20T01:36:21;100242.09;;;0.30;59.20
69982;BME280;57319;56.274;43.980;2023-03-20T01:38:57;100244.59;;;0.28;58.79
69982;BME280;57319;56.274;43.980;2023-03-20T01:41:25;100247.06;;;0.27;59.07
69982;BME280;57319;56.274;43.980;2023-03-20T01:43:51;100244.59;;;0.28;59.61
69982;BME280;57319;56.274;43.980;2023-03-20T01:46:22;100237.03;;;0.30;59.34
69982;BME280;57319;56.274;43.980;2023-03-20T01:51:17;100237.09;;;0.31;61.00
69982;BME280;57319;56.274;43.980;2023-03-20T01:53:44;100239.25;;;0.21;60.94
69982;BME280;57319;56.274;43.980;2023-03-20T01:56:14;100240.66;;;0.12;61.26
69982;BME280;57319;56.274;43.980;2023-03-20T01:58:43;100243.09;;;0.11;61.44
69982;BME280;57319;56.274;43.980;2023-03-20T02:01:13;100239.00;;;0.14;61.29
69982;BME280;57319;56.274;43.980;2023-03-20T02:03:43;100244.06;;;0.14;61.37
69982;BME280;57319;56.274;43.980;2023-03-20T02:06:10;100239.06;;;0.16;61.05
69982;BME280;57319;56.274;43.980;2023-03-20T02:08:50;100240.06;;;0.20;61.07
69982;BME280;57319;56.274;43.980;2023-03-20T02:11:18;100243.50;;;0.22;61.02
69982;BME280;57319;56.274;43.980;2023-03-20T02:13:45;100233.25;;;0.19;60.96
69982;BME280;57319;56.274;43.980;2023-03-20T02:16:16;100232.41;;;0.18;60.58
69982;BME280;57319;56.274;43.980;2023-03-20T02:18:47;100242.59;;;0.20;60.51
69982;BME280;57319;56.274;43.980;2023-03-20T02:24:20;100232.47;;;0.20;60.77
69982;BME280;57319;56.274;43.980;2023-03-20T02:27:26;100225.72;;;0.20;60.77
69982;BME280;57319;56.274;43.980;2023-03-20T02:39:09;100215.81;;;0.26;60.59
69982;BME280;57319;56.274;43.980;2023-03-20T02:47:39;100209.03;;;0.25;61.06
69982;BME280;57319;56.274;43.980;2023-03-20T02:52:48;100216.63;;;0.25;61.80
69982;BME280;57319;56.274;43.980;2023-03-20T02:57:58;100213.84;;;0.19;62.13
69982;BME280;57319;56.274;43.980;2023-03-20T03:00:31;100213.00;;;0.19;62.29
69982;BME280;57319;56.274;43.980;2023-03-20T03:03:07;100212.22;;;0.20;62.39
69982;BME280;57319;56.274;43.980;2023-03-20T03:06:06;100192.81;;;0.20;62.48
69982;BME280;57319;56.274;43.980;2023-03-20T03:08:38;100202.88;;;0.19;63.30
69982;BME280;57319;56.274;43.980;2023-03-20T03:11:08;100202.81;;;0.17;64.72
69982;BME280;57319;56.274;43.980;2023-03-20T03:13:41;100204.38;;;0.13;64.47
69982;BME280;57319;56.274;43.980;2023-03-20T03:16:14;100211.91;;;0.12;64.76
69982;BME280;57319;56.274;43.980;2023-03-20T03:18:42;100210.31;;;0.14;65.51
69982;BME280;57319;56.274;43.980;2023-03-20T03:21:11;100205.13;;;0.11;66.04
69982;BME280;57319;56.274;43.980;2023-03-20T03:23:44;100211.81;;;0.09;66.00
69982;BME280;57319;56.274;43.980;2023-03-20T03:26:20;100216.97;;;0.12;66.29
69982;BME280;57319;56.274;43.980;2023-03-20T03:28:56;100211.06;;;0.11;66.66
69982;BME280;57319;56.274;43.980;2023-03-20T03:31:23;100206.97;;;0.15;66.56
69982;BME280;57319;56.274;43.980;2023-03-20T03:33:52;100219.50;;;0.12;66.32
69982;BME280;57319;56.274;43.980;2023-03-20T03:39:57;100211.75;;;0.07;66.58
69982;BME280;57319;56.274;43.980;2023-03-20T03:44:58;100203.88;;;-0.01;65.81
69982;BME280;57319;56.274;43.980;2023-03-20T03:47:30;100210.50;;;-0.04;65.49
69982;BME280;57319;56.274;43.980;2023-03-20T03:50:02;100210.59;;;-0.01;66.10
69982;BME280;57319;56.274;43.980;2023-03-20T03:52:31;100209.91;;;0.03;66.16
69982;BME280;57319;56.274;43.980;2023-03-20T03:55:20;100208.34;;;0.07;66.17
69982;BME280;57319;56.274;43.980;2023-03-20T03:57:56;100209.97;;;0.05;66.01
69982;BME280;57319;56.274;43.980;2023-03-20T04:00:25;100215.78;;;0.02;66.51
69982;BME280;57319;56.274;43.980;2023-03-20T04:02:55;100221.94;;;0.09;66.44
69982;BME280;57319;56.274;43.980;2023-03-20T04:05:24;100214.34;;;0.09;66.07
69982;BME280;57319;56.274;43.980;2023-03-20T04:07:53;100200.06;;;0.11;66.24
69982;BME280;57319;56.274;43.980;2023-03-20T04:10:20;100206.09;;;0.14;65.91
69982;BME280;57319;56.274;43.980;2023-03-20T04:12:46;100198.56;;;0.16;65.66
69982;BME280;57319;56.274;43.980;2023-03-20T04:15:13;100200.59;;;0.25;66.47
69982;BME280;57319;56.274;43.980;2023-03-20T04:17:40;100189.88;;;0.32;67.15
69982;BME280;57319;56.274;43.980;2023-03-20T04:20:07;100190.75;;;0.34;66.63
69982;BME280;57319;56.274;43.980;2023-03-20T04:22:33;100194.22;;;0.36;66.64
69982;BME280;57319;56.274;43.980;2023-03-20T04:25:03;100195.03;;;0.35;65.55
69982;BME280;57319;56.274;43.980;2023-03-20T04:27:30;100187.31;;;0.32;64.54
69982;BME280;57319;56.274;43.980;2023-03-20T04:29:56;100194.97;;;0.33;64.15
69982;BME280;57319;56.274;43.980;2023-03-20T04:32:21;100183.28;;;0.37;64.14
69982;BME280;57319;56.274;43.980;2023-03-20T04:34:47;100182.66;;;0.43;64.10
69982;BME280;57319;56.274;43.980;2023-03-20T04:37:13;100182.69;;;0.44;62.51
69982;BME280;57319;56.274;43.980;2023-03-20T04:39:38;100183.59;;;0.46;62.02
69982;BME280;57319;56.274;43.980;2023-03-20T04:42:08;100186.88;;;0.44;62.37
69982;BME280;57319;56.274;43.980;2023-03-20T04:44:34;100202.78;;;0.40;62.20
69982;BME280;57319;56.274;43.980;2023-03-20T04:47:00;100201.94;;;0.39;61.95
69982;BME280;57319;56.274;43.980;2023-03-20T04:49:26;100206.88;;;0.36;62.14
69982;BME280;57319;56.274;43.980;2023-03-20T04:51:53;100216.22;;;0.37;62.28
69982;BME280;57319;56.274;43.980;2023-03-20T04:54:19;100209.63;;;0.42;62.04
69982;BME280;57319;56.274;43.980;2023-03-20T04:56:44;100204.00;;;0.49;61.63
69982;BME280;57319;56.274;43.980;2023-03-20T04:59:10;100196.53;;;0.54;61.74
69982;BME280;57319;56.274;43.980;2023-03-20T05:01:36;100194.28;;;0.62;61.51
69982;BME280;57319;56.274;43.980;2023-03-20T05:04:01;100209.59;;;0.65;61.45
69982;BME280;57319;56.274;43.980;2023-03-20T05:06:28;100204.56;;;0.66;61.12
69982;BME280;57319;56.274;43.980;2023-03-20T05:08:54;100203.00;;;0.70;61.56
69982;BME280;57319;56.274;43.980;2023-03-20T05:11:20;100196.41;;;0.75;61.00
69982;BME280;57319;56.274;43.980;2023-03-20T05:13:46;100203.44;;;0.82;60.51
69982;BME280;57319;56.274;43.980;2023-03-20T05:16:12;100186.63;;;0.86;60.76
69982;BME280;57319;56.274;43.980;2023-03-20T05:18:37;100194.47;;;0.92;60.45
69982;BME280;57319;56.274;43.980;2023-03-20T05:21:03;100187.81;;;0.96;60.44
69982;BME280;57319;56.274;43.980;2023-03-20T05:23:29;100193.09;;;1.02;60.90
69982;BME280;57319;56.274;43.980;2023-03-20T05:25:55;100201.53;;;1.02;61.57
69982;BME280;57319;56.274;43.980;2023-03-20T05:28:21;100196.56;;;1.06;61.63
69982;BME280;57319;56.274;43.980;2023-03-20T05:30:48;100198.38;;;1.10;60.75
69982;BME280;57319;56.274;43.980;2023-03-20T05:33:13;100198.56;;;1.14;60.81
69982;BME280;57319;56.274;43.980;2023-03-20T05:35:39;100189.56;;;1.24;59.98
69982;BME280;57319;56.274;43.980;2023-03-20T05:38:05;100184.03;;;1.36;59.80
69982;BME280;57319;56.274;43.980;2023-03-20T05:40:31;100179.28;;;1.47;60.07
69982;BME280;57319;56.274;43.980;2023-03-20T05:42:56;100177.19;;;1.61;59.59
69982;BME280;57319;56.274;43.980;2023-03-20T05:45:22;100186.03;;;1.74;59.72
69982;BME280;57319;56.274;43.980;2023-03-20T05:47:48;100173.00;;;1.92;59.29
69982;BME280;57319;56.274;43.980;2023-03-20T05:50:13;100178.53;;;2.07;59.37
69982;BME280;57319;56.274;43.980;2023-03-20T05:52:39;100173.06;;;2.24;59.18
69982;BME280;57319;56.274;43.980;2023-03-20T05:55:05;100183.44;;;2.31;58.52
69982;BME280;57319;56.274;43.980;2023-03-20T05:57:31;100188.81;;;2.42;58.22
69982;BME280;57319;56.274;43.980;2023-03-20T05:59:57;100185.63;;;2.49;57.59
69982;BME280;57319;56.274;43.980;2023-03-20T06:02:22;100168.00;;;2.56;57.47
69982;BME280;57319;56.274;43.980;2023-03-20T06:04:48;100179.09;;;2.59;57.17
69982;BME280;57319;56.274;43.980;2023-03-20T06:07:14;100183.34;;;2.59;56.30
69982;BME280;57319;56.274;43.980;2023-03-20T06:09:40;100180.66;;;2.54;55.67
69982;BME280;57319;56.274;43.980;2023-03-20T06:12:06;100188.84;;;2.44;56.36
69982;BME280;57319;56.274;43.980;2023-03-20T06:14:31;100179.31;;;2.35;56.75
69982;BME280;57319;56.274;43.980;2023-03-20T06:16:57;100177.09;;;2.17;55.89
69982;BME280;57319;56.274;43.980;2023-03-20T06:19:23;100178.63;;;2.10;56.56
69982;BME280;57319;56.274;43.980;2023-03-20T06:21:49;100176.09;;;2.10;57.10
69982;BME280;57319;56.274;43.980;2023-03-20T06:24:15;100169.41;;;2.14;56.41
69982;BME280;57319;56.274;43.980;2023-03-20T06:26:41;100174.94;;;2.00;56.13
69982;BME280;57319;56.274;43.980;2023-03-20T06:29:07;100171.47;;;1.97;56.32
69982;BME280;57319;56.274;43.980;2023-03-20T06:31:33;100170.47;;;1.92;56.31
69982;BME280;57319;56.274;43.980;2023-03-20T06:33:58;100162.09;;;1.94;57.00
69982;BME280;57319;56.274;43.980;2023-03-20T06:36:24;100169.94;;;2.02;57.54
69982;BME280;57319;56.274;43.980;2023-03-20T06:38:49;100163.97;;;2.01;57.49
69982;BME280;57319;56.274;43.980;2023-03-20T06:41:15;100166.50;;;2.01;57.02
69982;BME280;57319;56.274;43.980;2023-03-20T06:43:41;100160.63;;;2.02;57.20
69982;BME280;57319;56.274;43.980;2023-03-20T06:46:09;100165.78;;;2.06;57.74
69982;BME280;57319;56.274;43.980;2023-03-20T06:48:35;100161.81;;;2.15;58.39
69982;BME280;57319;56.274;43.980;2023-03-20T06:51:01;100160.47;;;2.27;57.37
69982;BME280;57319;56.274;43.980;2023-03-20T06:53:26;100161.22;;;2.24;57.28
69982;BME280;57319;56.274;43.980;2023-03-20T06:55:52;100158.84;;;2.30;57.89
69982;BME280;57319;56.274;43.980;2023-03-20T06:58:19;100148.81;;;2.35;57.74
69982;BME280;57319;56.274;43.980;2023-03-20T07:00:45;100164.00;;;2.33;56.62
69982;BME280;57319;56.274;43.980;2023-03-20T07:03:11;100157.25;;;2.34;56.94
69982;BME280;57319;56.274;43.980;2023-03-20T07:05:37;100154.91;;;2.42;56.82
69982;BME280;57319;56.274;43.980;2023-03-20T07:08:05;100156.72;;;2.46;56.21
69982;BME280;57319;56.274;43.980;2023-03-20T07:10:32;100155.88;;;2.45;55.99
69982;BME280;57319;56.274;43.980;2023-03-20T07:12:58;100149.91;;;2.43;55.80
69982;BME280;57319;56.274;43.980;2023-03-20T07:15:25;100152.44;;;2.43;56.02
69982;BME280;57319;56.274;43.980;2023-03-20T07:17:51;100147.44;;;2.46;55.62
69982;BME280;57319;56.274;43.980;2023-03-20T07:20:17;100139.94;;;2.52;56.10
69982;BME280;57319;56.274;43.980;2023-03-20T07:22:43;100140.91;;;2.56;55.74
69982;BME280;57319;56.274;43.980;2023-03-20T07:25:09;100143.34;;;2.51;54.86
69982;BME280;57319;56.274;43.980;2023-03-20T07:27:35;100139.00;;;2.47;54.96
69982;BME280;57319;56.274;43.980;2023-03-20T07:30:03;100139.22;;;2.57;56.59
69982;BME280;57319;56.274;43.980;2023-03-20T07:32:29;100134.25;;;2.61;56.40
69982;BME280;57319;56.274;43.980;2023-03-20T07:34:54;100142.00;;;2.66;54.97
69982;BME280;57319;56.274;43.980;2023-03-20T07:37:20;100147.25;;;2.72;56.61
69982;BME280;57319;56.274;43.980;2023-03-20T07:39:46;100145.63;;;2.76;56.09
69982;BME280;57319;56.274;43.980;2023-03-20T07:42:11;100147.34;;;2.77;56.52
69982;BME280;57319;56.274;43.980;2023-03-20T07:44:38;100141.34;;;2.75;55.78
69982;BME280;57319;56.274;43.980;2023-03-20T07:47:04;100146.56;;;2.79;55.09
69982;BME280;57319;56.274;43.980;2023-03-20T07:49:31;100143.78;;;2.70;54.78
69982;BME280;57319;56.274;43.980;2023-03-20T07:51:57;100145.59;;;2.74;55.25
69982;BME280;57319;56.274;43.980;2023-03-20T07:54:23;100149.06;;;2.76;55.85
69982;BME280;57319;56.274;43.980;2023-03-20T07:56:49;100142.25;;;2.75;55.77
69982;BME280;57319;56.274;43.980;2023-03-20T07:59:15;100137.16;;;2.75;55.34
69982;BME280;57319;56.274;43.980;2023-03-20T08:01:41;100136.34;;;2.76;55.76
69982;BME280;57319;56.274;43.980;2023-03-20T08:04:07;100132.78;;;2.69;54.99
69982;BME280;57319;56.274;43.980;2023-03-20T08:06:32;100133.78;;;2.76;55.08
69982;BME280;57319;56.274;43.980;2023-03-20T08:08:58;100128.13;;;2.88;55.71
69982;BME280;57319;56.274;43.980;2023-03-20T08:11:23;100124.78;;;2.89;55.01
69982;BME280;57319;56.274;43.980;2023-03-20T08:13:49;100127.59;;;3.00;55.67
69982;BME280;57319;56.274;43.980;2023-03-20T08:16:15;100119.34;;;3.10;55.71
69982;BME280;57319;56.274;43.980;2023-03-20T08:18:40;100108.63;;;3.23;55.52
69982;BME280;57319;56.274;43.980;2023-03-20T08:21:07;100107.31;;;3.41;54.79
69982;BME280;57319;56.274;43.980;2023-03-20T08:23:32;100102.47;;;3.52;54.28
69982;BME280;57319;56.274;43.980;2023-03-20T08:25:58;100108.66;;;3.63;54.29
69982;BME280;57319;56.274;43.980;2023-03-20T08:28:24;100107.13;;;3.71;55.04
69982;BME280;57319;56.274;43.980;2023-03-20T08:30:49;100102.97;;;3.75;55.00
69982;BME280;57319;56.274;43.980;2023-03-20T08:33:16;100104.78;;;3.81;53.96
69982;BME280;57319;56.274;43.980;2023-03-20T08:35:42;100107.13;;;3.71;54.38
69982;BME280;57319;56.274;43.980;2023-03-20T08:38:11;100108.94;;;3.77;54.83
69982;BME280;57319;56.274;43.980;2023-03-20T08:40:39;100106.34;;;3.76;53.80
69982;BME280;57319;56.274;43.980;2023-03-20T08:43:05;100103.72;;;3.71;54.38
69982;BME280;57319;56.274;43.980;2023-03-20T08:45:31;100109.78;;;3.78;54.71
69982;BME280;57319;56.274;43.980;2023-03-20T08:47:56;100108.09;;;3.78;54.83
69982;BME280;57319;56.274;43.980;2023-03-20T08:50:22;100108.66;;;3.63;55.19
69982;BME280;57319;56.274;43.980;2023-03-20T08:52:48;100106.00;;;3.59;55.78
69982;BME280;57319;56.274;43.980;2023-03-20T08:55:14;100102.63;;;3.60;55.89
69982;BME280;57319;56.274;43.980;2023-03-20T08:57:40;100112.78;;;3.60;56.40
69982;BME280;57319;56.274;43.980;2023-03-20T09:00:07;100104.22;;;3.54;55.28
69982;BME280;57319;56.274;43.980;2023-03-20T09:02:34;100100.69;;;3.48;56.30
69982;BME280;57319;56.274;43.980;2023-03-20T09:05:00;100090.34;;;3.42;56.39
69982;BME280;57319;56.274;43.980;2023-03-20T09:07:26;100093.03;;;3.46;56.68
69982;BME280;57319;56.274;43.980;2023-03-20T09:09:51;100091.44;;;3.53;56.37
69982;BME280;57319;56.274;43.980;2023-03-20T09:12:17;100095.88;;;3.62;56.35
69982;BME280;57319;56.274;43.980;2023-03-20T09:14:43;100095.06;;;3.63;55.65
69982;BME280;57319;56.274;43.980;2023-03-20T09:17:09;100086.56;;;3.62;56.04
69982;BME280;57319;56.274;43.980;2023-03-20T09:19:35;100090.94;;;3.69;56.39
69982;BME280;57319;56.274;43.980;2023-03-20T09:22:03;100086.03;;;3.79;55.11
69982;BME280;57319;56.274;43.980;2023-03-20T09:24:29;100079.44;;;3.88;55.08
69982;BME280;57319;56.274;43.980;2023-03-20T09:26:55;100073.56;;;3.91;54.51
69982;BME280;57319;56.274;43.980;2023-03-20T09:29:21;100074.44;;;3.92;55.77
69982;BME280;57319;56.274;43.980;2023-03-20T09:31:47;100073.00;;;4.06;55.38
69982;BME280;57319;56.274;43.980;2023-03-20T09:34:12;100073.97;;;4.13;55.76
69982;BME280;57319;56.274;43.980;2023-03-20T09:36:38;100063.94;;;4.22;54.92
69982;BME280;57319;56.274;43.980;2023-03-20T09:39:04;100070.88;;;4.29;54.97
69982;BME280;57319;56.274;43.980;2023-03-20T09:41:29;100070.09;;;4.33;55.35
69982;BME280;57319;56.274;43.980;2023-03-20T09:44:11;100064.97;;;4.32;55.62
69982;BME280;57319;56.274;43.980;2023-03-20T09:49:44;100072.50;;;4.25;54.54
69982;BME280;57319;56.274;43.980;2023-03-20T09:55:06;100065.13;;;4.41;55.99
69982;BME280;57319;56.274;43.980;2023-03-20T09:57:40;100059.97;;;4.38;54.55
69982;BME280;57319;56.274;43.980;2023-03-20T10:00:29;100064.25;;;4.39;55.14
69982;BME280;57319;56.274;43.980;2023-03-20T10:03:15;100060.66;;;4.28;54.17
69982;BME280;57319;56.274;43.980;2023-03-20T10:05:45;100064.56;;;4.10;54.44
69982;BME280;57319;56.274;43.980;2023-03-20T10:08:14;100062.78;;;4.04;54.66
69982;BME280;57319;56.274;43.980;2023-03-20T10:11:26;100065.31;;;4.04;54.74
69982;BME280;57319;56.274;43.980;2023-03-20T10:16:49;100052.31;;;3.90;54.57
69982;BME280;57319;56.274;43.980;2023-03-20T10:21:47;100036.22;;;3.92;55.32
69982;BME280;57319;56.274;43.980;2023-03-20T10:24:41;100042.91;;;3.86;56.03
69982;BME280;57319;56.274;43.980;2023-03-20T10:32:42;100038.78;;;3.92;57.52
69982;BME280;57319;56.274;43.980;2023-03-20T10:42:43;100026.78;;;3.43;60.15
69982;BME280;57319;56.274;43.980;2023-03-20T10:47:44;100033.91;;;3.20;60.98
69982;BME280;57319;56.274;43.980;2023-03-20T10:50:26;100034.28;;;2.97;61.58
69982;BME280;57319;56.274;43.980;2023-03-20T10:52:54;100034.31;;;2.99;62.57
69982;BME280;57319;56.274;43.980;2023-03-20T10:55:26;100040.25;;;2.99;63.23
69982;BME280;57319;56.274;43.980;2023-03-20T10:58:17;100035.97;;;2.97;64.19
69982;BME280;57319;56.274;43.980;2023-03-20T11:00:44;100041.63;;;2.85;64.36
69982;BME280;57319;56.274;43.980;2023-03-20T11:03:30;100032.91;;;2.74;65.42
69982;BME280;57319;56.274;43.980;2023-03-20T11:06:14;100036.28;;;2.74;65.76
69982;BME280;57319;56.274;43.980;2023-03-20T11:08:42;100025.03;;;2.64;66.60
69982;BME280;57319;56.274;43.980;2023-03-20T11:11:11;100028.41;;;2.63;66.45
69982;BME280;57319;56.274;43.980;2023-03-20T11:13:43;100029.22;;;2.62;66.44
69982;BME280;57319;56.274;43.980;2023-03-20T11:19:10;100026.47;;;2.53;67.09
69982;BME280;57319;56.274;43.980;2023-03-20T11:21:46;100021.38;;;2.51;66.95
69982;BME280;57319;56.274;43.980;2023-03-20T11:26:50;100017.47;;;2.31;67.91
69982;BME280;57319;56.274;43.980;2023-03-20T11:29:24;100022.47;;;2.29;68.64
69982;BME280;57319;56.274;43.980;2023-03-20T11:31:51;100011.69;;;2.36;68.63
69982;BME280;57319;56.274;43.980;2023-03-20T11:37:00;100008.78;;;2.58;68.84
69982;BME280;57319;56.274;43.980;2023-03-20T11:39:30;100002.06;;;2.60;68.14
69982;BME280;57319;56.274;43.980;2023-03-20T11:42:01;100007.19;;;2.61;68.35
69982;BME280;57319;56.274;43.980;2023-03-20T11:44:29;99998.91;;;2.70;68.28
69982;BME280;57319;56.274;43.980;2023-03-20T11:47:09;100001.41;;;2.68;68.39
69982;BME280;57319;56.274;43.980;2023-03-20T11:50:23;99993.81;;;2.70;68.20
69982;BME280;57319;56.274;43.980;2023-03-20T11:52:50;99983.88;;;2.79;68.31
69982;BME280;57319;56.274;43.980;2023-03-20T11:55:32;99988.47;;;2.96;68.31
69982;BME280;57319;56.274;43.980;2023-03-20T11:58:02;99980.03;;;2.97;67.74
69982;BME280;57319;56.274;43.980;2023-03-20T12:00:35;99973.38;;;3.03;67.95
69982;BME280;57319;56.274;43.980;2023-03-20T12:03:02;99976.53;;;2.92;68.05
69982;BME280;57319;56.274;43.980;2023-03-20T12:05:36;99973.97;;;2.92;67.65
69982;BME280;57319;56.274;43.980;2023-03-20T12:10:31;99972.31;;;2.94;67.71
69982;BME280;57319;56.274;43.980;2023-03-20T12:13:20;99964.00;;;3.01;67.62
69982;BME280;57319;56.274;43.980;2023-03-20T12:15:55;99975.00;;;3.00;67.73
69982;BME280;57319;56.274;43.980;2023-03-20T12:18:48;99977.50;;;2.97;67.44
69982;BME280;57319;56.274;43.980;2023-03-20T12:21:42;99971.66;;;3.02;67.06
69982;BME280;57319;56.274;43.980;2023-03-20T12:24:25;99966.63;;;3.05;66.89
69982;BME280;57319;56.274;43.980;2023-03-20T12:29:42;99965.84;;;3.08;66.65
69982;BME280;57319;56.274;43.980;2023-03-20T12:32:39;99967.59;;;3.11;67.01
69982;BME280;57319;56.274;43.980;2023-03-20T12:37:45;99950.69;;;3.14;67.13
69982;BME280;57319;56.274;43.980;2023-03-20T12:40:15;99951.56;;;3.13;67.01
69982;BME280;57319;56.274;43.980;2023-03-20T12:45:11;99948.66;;;2.98;66.95
69982;BME280;57319;56.274;43.980;2023-03-20T12:53:10;99937.69;;;3.00;67.17
69982;BME280;57319;56.274;43.980;2023-03-20T13:01:30;99926.38;;;3.27;66.04
69982;BME280;57319;56.274;43.980;2023-03-20T13:06:53;99918.88;;;3.35;66.12
69982;BME280;57319;56.274;43.980;2023-03-20T13:17:45;99900.97;;;3.29;67.85
69982;BME280;57319;56.274;43.980;2023-03-20T13:20:27;99900.22;;;3.34;67.11
69982;BME280;57319;56.274;43.980;2023-03-20T13:28:15;99890.41;;;3.10;67.72
69982;BME280;57319;56.274;43.980;2023-03-20T13:30:51;99889.34;;;2.99;68.52
69982;BME280;57319;56.274;43.980;2023-03-20T13:36:18;99887.31;;;2.81;68.89
69982;BME280;57319;56.274;43.980;2023-03-20T13:39:05;99882.97;;;2.77;69.05
69982;BME280;57319;56.274;43.980;2023-03-20T13:41:37;99879.38;;;2.67;69.34
69982;BME280;57319;56.274;43.980;2023-03-20T13:44:04;99874.13;;;2.59;69.87
69982;BME280;57319;56.274;43.980;2023-03-20T13:46:49;99872.28;;;2.52;70.07
69982;BME280;57319;56.274;43.980;2023-03-20T13:52:00;99863.56;;;2.39;70.61
69982;BME280;57319;56.274;43.980;2023-03-20T14:03:44;99872.44;;;2.20;72.18
69982;BME280;57319;56.274;43.980;2023-03-20T14:08:57;99864.03;;;2.23;71.86
69982;BME280;57319;56.274;43.980;2023-03-20T14:14:18;99854.94;;;2.32;72.46
69982;BME280;57319;56.274;43.980;2023-03-20T14:16:42;99849.06;;;2.35;72.08
69982;BME280;57319;56.274;43.980;2023-03-20T14:19:17;99840.50;;;2.31;71.63
69982;BME280;57319;56.274;43.980;2023-03-20T14:21:48;99851.66;;;2.38;71.39
69982;BME280;57319;56.274;43.980;2023-03-20T14:24:17;99853.31;;;2.37;71.34
69982;BME280;57319;56.274;43.980;2023-03-20T14:26:59;99851.41;;;2.27;71.40
69982;BME280;57319;56.274;43.980;2023-03-20T14:32:20;99859.06;;;2.29;71.50
69982;BME280;57319;56.274;43.980;2023-03-20T14:35:34;99856.50;;;2.27;71.81
69982;BME280;57319;56.274;43.980;2023-03-20T14:40:27;99852.09;;;2.18;72.06
69982;BME280;57319;56.274;43.980;2023-03-20T14:43:03;99854.63;;;2.18;71.75
69982;BME280;57319;56.274;43.980;2023-03-20T14:45:42;99848.56;;;2.13;72.38
69982;BME280;57319;56.274;43.980;2023-03-20T14:53:39;99849.13;;;2.01;73.28
69982;BME280;57319;56.274;43.980;2023-03-20T14:56:07;99849.09;;;2.00;73.26
69982;BME280;57319;56.274;43.980;2023-03-20T15:04:30;99841.06;;;1.81;74.51
69982;BME280;57319;56.274;43.980;2023-03-20T15:07:02;99845.88;;;1.71;74.80
69982;BME280;57319;56.274;43.980;2023-03-20T15:09:30;99850.16;;;1.73;75.28
69982;BME280;57319;56.274;43.980;2023-03-20T15:11:58;99852.53;;;1.67;75.05
69982;BME280;57319;56.274;43.980;2023-03-20T15:14:33;99850.75;;;1.63;75.53
69982;BME280;57319;56.274;43.980;2023-03-20T15:17:02;99843.91;;;1.60;75.75
69982;BME280;57319;56.274;43.980;2023-03-20T15:19:28;99843.88;;;1.59;75.59
69982;BME280;57319;56.274;43.980;2023-03-20T15:21:54;99835.53;;;1.63;75.71
69982;BME280;57319;56.274;43.980;2023-03-20T15:24:26;99844.81;;;1.62;76.00
69982;BME280;57319;56.274;43.980;2023-03-20T15:27:00;99848.25;;;1.64;76.20
69982;BME280;57319;56.274;43.980;2023-03-20T15:29:26;99838.81;;;1.59;76.11
69982;BME280;57319;56.274;43.980;2023-03-20T15:31:56;99845.53;;;1.57;76.39